Time;durP1;ratioP1;P1;durP2;ratioP2;P2;SDS_P1;SDS_P2;PMS_P1;PMS_P2;Temp;Humidity;BMP_temperature;BMP_pressure;BME280_temperature;BME280_humidity;BME280_pressure;Samples;Min_cycle;Max_cycle;Signal;HPM_P1;HPM_P2
2021/09/03 00:04:26;;;;;;;0.00;0.00;;;;;;;;;;10499595;28;20058;-82
2021/09/03 00:09:28;;;;;;;0.10;0.10;;;;;;;;;;10499475;28;20414;-81
2021/09/03 00:14:32;;;;;;;0.00;0.00;;;;;;;;;;10525546;28;20036;-81
2021/09/03 00:19:35;;;;;;;0.00;0.00;;;;;;;;;;10511292;28;20056;-82
2021/09/03 00:24:38;;;;;;;0.00;0.00;;;;;;;;;;10519721;28;20043;-82
2021/09/03 00:29:42;;;;;;;0.10;0.10;;;;;;;;;;10516601;28;20048;-81
2021/09/03 00:34:44;;;;;;;0.00;0.00;;;;;;;;;;10518654;28;20501;-81
2021/09/03 00:39:47;;;;;;;0.00;0.00;;;;;;;;;;10502188;28;20055;-81
2021/09/03 00:44:51;;;;;;;0.00;0.00;;;;;;;;;;10512450;28;20044;-81
2021/09/03 00:49:54;;;;;;;0.13;0.00;;;;;;;;;;10522282;28;20676;-80
2021/09/03 00:54:58;;;;;;;0.00;0.00;;;;;;;;;;10514997;28;20268;-80
2021/09/03 01:00:03;;;;;;;0.00;0.00;;;;;;;;;;10507090;28;20474;-80
2021/09/03 01:05:07;;;;;;;0.00;0.00;;;;;;;;;;10509935;28;20043;-82
2021/09/03 01:10:10;;;;;;;0.00;0.00;;;;;;;;;;10516356;28;20410;-81
2021/09/03 01:15:17;;;;;;;0.10;0.10;;;;;;;;;;10516599;28;20047;-80
2021/09/03 01:20:20;;;;;;;0.10;0.10;;;;;;;;;;10498330;28;20395;-81
2021/09/03 01:25:25;;;;;;;0.00;0.00;;;;;;;;;;10512510;28;20048;-82
2021/09/03 01:30:27;;;;;;;0.00;0.00;;;;;;;;;;10516875;28;20055;-82
2021/09/03 01:35:30;;;;;;;0.05;0.05;;;;;;;;;;10494132;28;20985;-81
2021/09/03 01:40:34;;;;;;;0.00;0.00;;;;;;;;;;10499591;28;20047;-81
2021/09/03 01:45:37;;;;;;;0.00;0.00;;;;;;;;;;10515446;28;20043;-80
2021/09/03 01:50:40;;;;;;;0.00;0.00;;;;;;;;;;10520845;28;20485;-80
2021/09/03 01:55:44;;;;;;;0.10;0.10;;;;;;;;;;10509985;28;20043;-80
2021/09/03 02:00:47;;;;;;;0.00;0.00;;;;;;;;;;10512076;28;20050;-80
2021/09/03 02:05:51;;;;;;;0.00;0.00;;;;;;;;;;10508206;28;20486;-81
2021/09/03 02:10:57;;;;;;;0.00;0.00;;;;;;;;;;10509917;28;20044;-82
2021/09/03 02:16:00;;;;;;;0.00;0.00;;;;;;;;;;10503260;28;20045;-81
2021/09/03 02:21:03;;;;;;;0.00;0.00;;;;;;;;;;10509508;28;20047;-81
2021/09/03 02:26:07;;;;;;;0.00;0.00;;;;;;;;;;10509572;28;20044;-81
2021/09/03 02:31:10;;;;;;;0.00;0.00;;;;;;;;;;10511262;28;20425;-82
2021/09/03 02:36:13;;;;;;;0.00;0.00;;;;;;;;;;10506074;28;20049;-81
2021/09/03 02:41:17;;;;;;;0.00;0.00;;;;;;;;;;10512614;28;20508;-81
2021/09/03 02:46:20;;;;;;;0.00;0.00;;;;;;;;;;10495541;28;20044;-81
2021/09/03 02:51:23;;;;;;;0.10;0.00;;;;;;;;;;10515437;28;20102;-80
2021/09/03 02:56:27;;;;;;;0.00;0.00;;;;;;;;;;10515220;28;20067;-78
2021/09/03 03:01:30;;;;;;;0.00;0.00;;;;;;;;;;10514577;28;20119;-77
2021/09/03 03:06:33;;;;;;;0.00;0.00;;;;;;;;;;10508055;28;20091;-74
2021/09/03 03:11:37;;;;;;;0.10;0.10;;;;;;;;;;10506147;28;20055;-75
2021/09/03 03:16:40;;;;;;;0.40;0.10;;;;;;;;;;10501911;28;20131;-75
2021/09/03 03:21:43;;;;;;;3.63;1.20;;;;;;;;;;10509590;28;20049;-74
2021/09/03 03:26:48;;;;;;;1.02;0.40;;;;;;;;;;10503766;28;20040;-74
2021/09/03 03:31:51;;;;;;;1.55;0.30;;;;;;;;;;10510631;28;20052;-75
2021/09/03 03:36:54;;;;;;;0.65;0.10;;;;;;;;;;10515927;28;20036;-75
2021/09/03 03:41:58;;;;;;;0.20;0.10;;;;;;;;;;10520186;28;20040;-74
2021/09/03 03:47:01;;;;;;;0.25;0.10;;;;;;;;;;10520310;28;20049;-75
2021/09/03 03:52:06;;;;;;;0.43;0.10;;;;;;;;;;10512901;28;20486;-76
2021/09/03 03:57:10;;;;;;;0.00;0.00;;;;;;;;;;10521312;28;20405;-75
2021/09/03 04:02:13;;;;;;;0.60;0.20;;;;;;;;;;10520511;28;20047;-76
2021/09/03 04:07:15;;;;;;;0.77;0.30;;;;;;;;;;10519030;28;20082;-73
2021/09/03 04:12:20;;;;;;;1.08;0.17;;;;;;;;;;10502677;28;20410;-72
2021/09/03 04:17:22;;;;;;;0.95;0.20;;;;;;;;;;10528345;28;20048;-73
2021/09/03 04:22:26;;;;;;;0.22;0.10;;;;;;;;;;10492720;28;20051;-71
2021/09/03 04:27:30;;;;;;;0.20;0.03;;;;;;;;;;10518756;28;20052;-72
2021/09/03 04:32:34;;;;;;;1.50;0.25;;;;;;;;;;10514772;28;20051;-72
2021/09/03 04:37:40;;;;;;;1.08;0.20;;;;;;;;;;10513226;28;20056;-72
2021/09/03 04:42:45;;;;;;;0.30;0.10;;;;;;;;;;10504564;28;20948;-72
2021/09/03 04:47:48;;;;;;;0.20;0.10;;;;;;;;;;10510224;28;20497;-72
2021/09/03 04:52:52;;;;;;;0.98;0.20;;;;;;;;;;10513725;28;20414;-72
2021/09/03 04:57:56;;;;;;;0.40;0.20;;;;;;;;;;10510692;28;20040;-72
2021/09/03 05:02:59;;;;;;;0.30;0.10;;;;;;;;;;10509666;28;20520;-73
2021/09/03 05:08:02;;;;;;;1.10;0.45;;;;;;;;;;10511744;28;20048;-72
2021/09/03 05:13:07;;;;;;;0.63;0.20;;;;;;;;;;10520189;28;20052;-72
2021/09/03 05:18:12;;;;;;;0.60;0.10;;;;;;;;;;10513255;28;20406;-72
2021/09/03 05:23:15;;;;;;;1.17;0.40;;;;;;;;;;10514356;28;20040;-72
2021/09/03 05:28:22;;;;;;;0.55;0.20;;;;;;;;;;10519788;28;20044;-72
2021/09/03 05:33:25;;;;;;;0.00;0.00;;;;;;;;;;10515500;28;20040;-72
2021/09/03 05:38:28;;;;;;;0.15;0.10;;;;;;;;;;10507242;28;20041;-72
2021/09/03 05:43:33;;;;;;;0.00;0.00;;;;;;;;;;10513066;28;20395;-72
2021/09/03 05:48:37;;;;;;;0.28;0.10;;;;;;;;;;10490235;28;20063;-72
2021/09/03 05:53:40;;;;;;;0.10;0.10;;;;;;;;;;10513368;28;20048;-72
2021/09/03 05:58:44;;;;;;;0.28;0.10;;;;;;;;;;10512981;28;20041;-73
2021/09/03 06:03:47;;;;;;;0.20;0.10;;;;;;;;;;10515272;28;20068;-71
2021/09/03 06:08:52;;;;;;;0.00;0.00;;;;;;;;;;10512838;28;20214;-73
2021/09/03 06:13:57;;;;;;;0.00;0.00;;;;;;;;;;10512660;28;20131;-72
2021/09/03 06:19:00;;;;;;;0.00;0.00;;;;;;;;;;10509998;28;20040;-72
2021/09/03 06:24:26;;;;;;;0.00;0.00;;;;;;;;;;10510404;28;20040;-72
2021/09/03 06:29:40;;;;;;;0.00;0.00;;;;;;;;;;10511744;28;20040;-73
2021/09/03 06:34:46;;;;;;;0.00;0.00;;;;;;;;;;10514143;28;20391;-72
2021/09/03 06:39:49;;;;;;;0.00;0.00;;;;;;;;;;10491267;28;20060;-73
2021/09/03 06:44:53;;;;;;;0.00;0.00;;;;;;;;;;10507953;28;20049;-73
2021/09/03 06:49:56;;;;;;;0.00;0.00;;;;;;;;;;10514566;28;20048;-72
2021/09/03 06:54:59;;;;;;;0.00;0.00;;;;;;;;;;10498477;28;20395;-72
2021/09/03 07:00:05;;;;;;;0.20;0.00;;;;;;;;;;10509461;28;20066;-72
2021/09/03 07:05:09;;;;;;;0.00;0.00;;;;;;;;;;10517028;28;20087;-73
2021/09/03 07:10:12;;;;;;;0.00;0.00;;;;;;;;;;10521554;28;20056;-72
2021/09/03 07:15:18;;;;;;;0.00;0.00;;;;;;;;;;10530778;28;20044;-71
2021/09/03 07:20:21;;;;;;;0.00;0.00;;;;;;;;;;10512243;28;20040;-72
2021/09/03 07:25:23;;;;;;;0.00;0.00;;;;;;;;;;10517865;28;20409;-73
2021/09/03 07:30:27;;;;;;;0.00;0.00;;;;;;;;;;10522716;28;20041;-73
2021/09/03 07:35:30;;;;;;;0.00;0.00;;;;;;;;;;10521887;28;20051;-73
2021/09/03 07:40:33;;;;;;;0.00;0.00;;;;;;;;;;10528842;28;20047;-73
2021/09/03 07:45:38;;;;;;;0.00;0.00;;;;;;;;;;10514830;28;20099;-73
2021/09/03 07:50:41;;;;;;;0.00;0.00;;;;;;;;;;10520420;28;20055;-72
2021/09/03 07:55:46;;;;;;;0.08;0.08;;;;;;;;;;10517488;28;20041;-72
2021/09/03 08:00:50;;;;;;;0.00;0.00;;;;;;;;;;10523321;28;20052;-73
2021/09/03 08:05:53;;;;;;;0.00;0.00;;;;;;;;;;10521854;28;20039;-73
2021/09/03 08:10:55;;;;;;;0.00;0.00;;;;;;;;;;10518612;28;20398;-73
2021/09/03 08:16:02;;;;;;;0.00;0.00;;;;;;;;;;10517125;28;20054;-72
2021/09/03 08:21:06;;;;;;;0.00;0.00;;;;;;;;;;10517851;28;20064;-72
2021/09/03 08:26:08;;;;;;;0.00;0.00;;;;;;;;;;10514203;28;20055;-72
2021/09/03 08:31:12;;;;;;;0.00;0.00;;;;;;;;;;10519770;28;20051;-73
2021/09/03 08:36:15;;;;;;;0.00;0.00;;;;;;;;;;10515776;28;20437;-73
2021/09/03 08:41:21;;;;;;;0.00;0.00;;;;;;;;;;10507329;28;20040;-76
2021/09/03 08:46:27;;;;;;;0.00;0.00;;;;;;;;;;10517647;28;20040;-73
2021/09/03 08:51:30;;;;;;;0.00;0.00;;;;;;;;;;10517745;28;20044;-73
2021/09/03 08:56:33;;;;;;;0.10;0.00;;;;;;;;;;10518405;28;20092;-74
2021/09/03 09:01:37;;;;;;;0.00;0.00;;;;;;;;;;10516449;28;20452;-74
2021/09/03 09:06:41;;;;;;;0.00;0.00;;;;;;;;;;10516406;28;20040;-73
2021/09/03 09:11:44;;;;;;;0.05;0.00;;;;;;;;;;10510382;28;20084;-72
2021/09/03 09:16:49;;;;;;;0.00;0.00;;;;;;;;;;10506446;28;20040;-71
2021/09/03 09:21:57;;;;;;;0.00;0.00;;;;;;;;;;10493089;28;20179;-71
2021/09/03 09:27:00;;;;;;;0.00;0.00;;;;;;;;;;10517506;28;20044;-71
2021/09/03 09:32:06;;;;;;;0.00;0.00;;;;;;;;;;10498026;28;20069;-73
2021/09/03 09:37:10;;;;;;;0.00;0.00;;;;;;;;;;10496042;28;20048;-73
2021/09/03 09:42:19;;;;;;;0.00;0.00;;;;;;;;;;10513609;28;20055;-73
2021/09/03 09:47:23;;;;;;;0.00;0.00;;;;;;;;;;10525372;28;20044;-73
2021/09/03 09:52:36;;;;;;;0.00;0.00;;;;;;;;;;10518990;28;20044;-72
2021/09/03 09:57:42;;;;;;;0.00;0.00;;;;;;;;;;10514129;28;20518;-71
2021/09/03 10:02:46;;;;;;;0.00;0.00;;;;;;;;;;10508833;28;20040;-70
2021/09/03 10:07:50;;;;;;;0.00;0.00;;;;;;;;;;10511939;28;20406;-71
2021/09/03 10:12:53;;;;;;;0.10;0.00;;;;;;;;;;10508095;28;20055;-71
2021/09/03 10:17:57;;;;;;;0.00;0.00;;;;;;;;;;10494004;28;20051;-70
2021/09/03 10:23:01;;;;;;;0.00;0.00;;;;;;;;;;10511097;28;20051;-71
2021/09/03 10:28:05;;;;;;;0.00;0.00;;;;;;;;;;10502821;28;20047;-70
2021/09/03 10:33:11;;;;;;;0.08;0.00;;;;;;;;;;10523787;28;20040;-70
2021/09/03 10:38:26;;;;;;;0.00;0.00;;;;;;;;;;10488697;28;20049;-71
2021/09/03 10:43:43;;;;;;;0.08;0.00;;;;;;;;;;10494865;28;20049;-71
2021/09/03 10:48:50;;;;;;;0.00;0.00;;;;;;;;;;10485246;28;20405;-72
2021/09/03 10:53:56;;;;;;;0.00;0.00;;;;;;;;;;10493453;28;20140;-72
2021/09/03 10:59:03;;;;;;;0.00;0.00;;;;;;;;;;10515411;28;20470;-72
2021/09/03 11:04:11;;;;;;;0.00;0.00;;;;;;;;;;10520077;28;20385;-72
2021/09/03 11:09:18;;;;;;;0.00;0.00;;;;;;;;;;10516261;28;20044;-71
2021/09/03 11:14:22;;;;;;;0.00;0.00;;;;;;;;;;10514621;28;20063;-72
2021/09/03 11:19:28;;;;;;;0.00;0.00;;;;;;;;;;10518074;28;20036;-72
2021/09/03 11:24:34;;;;;;;0.00;0.00;;;;;;;;;;10488303;28;20056;-71
2021/09/03 11:29:42;;;;;;;0.10;0.00;;;;;;;;;;10508241;28;20044;-71
2021/09/03 11:35:00;;;;;;;0.00;0.00;;;;;;;;;;10510998;28;20051;-72
2021/09/03 11:40:09;;;;;;;0.00;0.00;;;;;;;;;;10512143;28;20571;-72
2021/09/03 11:45:16;;;;;;;0.00;0.00;;;;;;;;;;10499922;28;20059;-71
2021/09/03 11:50:19;;;;;;;0.03;0.00;;;;;;;;;;10497476;28;20165;-72
2021/09/03 11:55:24;;;;;;;0.00;0.00;;;;;;;;;;10525104;28;20051;-72
2021/09/03 12:00:27;;;;;;;0.00;0.00;;;;;;;;;;10525150;28;20045;-73
2021/09/03 12:05:30;;;;;;;0.00;0.00;;;;;;;;;;10517282;28;20082;-72
2021/09/03 12:10:35;;;;;;;0.00;0.00;;;;;;;;;;10523045;28;20421;-71
2021/09/03 12:15:38;;;;;;;0.00;0.00;;;;;;;;;;10517763;28;20416;-72
2021/09/03 12:20:47;;;;;;;0.00;0.00;;;;;;;;;;10504010;28;20102;-72
2021/09/03 12:25:51;;;;;;;0.00;0.00;;;;;;;;;;10511760;28;20040;-72
2021/09/03 12:30:54;;;;;;;0.00;0.00;;;;;;;;;;10509342;28;20039;-72
2021/09/03 12:35:57;;;;;;;0.00;0.00;;;;;;;;;;10514930;28;20402;-72
2021/09/03 12:41:09;;;;;;;0.00;0.00;;;;;;;;;;10522791;28;20044;-72
2021/09/03 12:46:13;;;;;;;0.10;0.00;;;;;;;;;;10513451;28;20048;-72
2021/09/03 12:51:20;;;;;;;0.00;0.00;;;;;;;;;;10528056;28;20119;-72
2021/09/03 12:56:24;;;;;;;0.00;0.00;;;;;;;;;;10511628;28;20051;-72
2021/09/03 13:01:27;;;;;;;0.00;0.00;;;;;;;;;;10500176;28;20052;-72
2021/09/03 13:06:30;;;;;;;0.00;0.00;;;;;;;;;;10497223;28;20401;-72
2021/09/03 13:11:34;;;;;;;0.00;0.00;;;;;;;;;;10498254;28;20056;-72
2021/09/03 13:16:37;;;;;;;0.00;0.00;;;;;;;;;;10518828;28;20040;-72
2021/09/03 13:21:41;;;;;;;0.00;0.00;;;;;;;;;;10518068;28;20043;-72
2021/09/03 13:26:47;;;;;;;0.00;0.00;;;;;;;;;;10520529;28;20036;-72
2021/09/03 13:31:49;;;;;;;0.00;0.00;;;;;;;;;;10519743;28;20406;-72
2021/09/03 13:36:53;;;;;;;0.00;0.00;;;;;;;;;;10520159;28;20073;-73
2021/09/03 13:42:03;;;;;;;0.00;0.00;;;;;;;;;;10517875;28;20188;-72
2021/09/03 13:47:08;;;;;;;0.00;0.00;;;;;;;;;;10497216;28;21587;-72
2021/09/03 13:52:12;;;;;;;0.00;0.00;;;;;;;;;;10497591;28;20482;-73
2021/09/03 13:57:16;;;;;;;0.00;0.00;;;;;;;;;;10524469;28;20048;-73
2021/09/03 14:02:19;;;;;;;0.00;0.00;;;;;;;;;;10518623;28;20393;-73
2021/09/03 14:07:24;;;;;;;0.00;0.00;;;;;;;;;;10497580;28;20094;-72
2021/09/03 14:12:28;;;;;;;0.00;0.00;;;;;;;;;;10513492;28;20071;-72
2021/09/03 14:17:30;;;;;;;0.00;0.00;;;;;;;;;;10484206;28;20466;-72
2021/09/03 14:22:34;;;;;;;0.00;0.00;;;;;;;;;;10519344;28;20051;-73
2021/09/03 14:27:39;;;;;;;0.00;0.00;;;;;;;;;;10503274;28;20417;-72
2021/09/03 14:32:52;;;;;;;0.00;0.00;;;;;;;;;;10523381;28;20044;-73
2021/09/03 14:37:56;;;;;;;0.00;0.00;;;;;;;;;;10519903;28;20062;-72
2021/09/03 14:43:00;;;;;;;0.00;0.00;;;;;;;;;;10518718;28;20041;-72
2021/09/03 14:48:03;;;;;;;0.00;0.00;;;;;;;;;;10493365;28;20123;-72
2021/09/03 14:53:06;;;;;;;0.00;0.00;;;;;;;;;;10492849;28;20075;-72
2021/09/03 14:58:12;;;;;;;0.00;0.00;;;;;;;;;;10509196;28;20409;-73
2021/09/03 15:03:15;;;;;;;0.00;0.00;;;;;;;;;;10498412;28;20144;-73
2021/09/03 15:08:18;;;;;;;0.00;0.00;;;;;;;;;;10503507;28;20090;-73
2021/09/03 15:13:23;;;;;;;0.00;0.00;;;;;;;;;;10515281;28;20048;-73
2021/09/03 15:18:27;;;;;;;0.00;0.00;;;;;;;;;;10512580;28;20703;-72
2021/09/03 15:23:29;;;;;;;0.00;0.00;;;;;;;;;;10512491;28;20052;-73
2021/09/03 15:28:35;;;;;;;0.00;0.00;;;;;;;;;;10517547;28;20036;-72
2021/09/03 15:33:37;;;;;;;0.00;0.00;;;;;;;;;;10521085;28;20044;-73
2021/09/03 15:38:40;;;;;;;0.00;0.00;;;;;;;;;;10502202;28;20078;-73
2021/09/03 15:43:44;;;;;;;0.00;0.00;;;;;;;;;;10517998;28;20045;-74
2021/09/03 15:48:47;;;;;;;0.05;0.00;;;;;;;;;;10521990;28;20044;-73
2021/09/03 15:53:49;;;;;;;0.00;0.00;;;;;;;;;;10517658;28;20127;-77
2021/09/03 15:58:54;;;;;;;0.00;0.00;;;;;;;;;;10515351;28;20044;-78
2021/09/03 16:03:59;;;;;;;0.00;0.00;;;;;;;;;;10490530;28;20048;-80
2021/09/03 16:09:02;;;;;;;0.03;0.00;;;;;;;;;;10512793;28;20060;-79
2021/09/03 16:14:06;;;;;;;0.00;0.00;;;;;;;;;;10520900;28;20054;-79
2021/09/03 16:19:10;;;;;;;0.00;0.00;;;;;;;;;;10506024;28;20185;-79
2021/09/03 16:24:14;;;;;;;0.00;0.00;;;;;;;;;;10521824;28;20051;-79
2021/09/03 16:29:18;;;;;;;0.00;0.00;;;;;;;;;;10499394;28;20493;-77
2021/09/03 16:34:22;;;;;;;0.00;0.00;;;;;;;;;;10513925;28;20501;-78
2021/09/03 16:39:26;;;;;;;0.00;0.00;;;;;;;;;;10513543;28;20494;-77
2021/09/03 16:44:32;;;;;;;0.00;0.00;;;;;;;;;;10501621;28;20048;-77
2021/09/03 16:49:45;;;;;;;0.00;0.00;;;;;;;;;;10517500;28;20040;-77
2021/09/03 16:54:48;;;;;;;0.00;0.00;;;;;;;;;;10512168;28;21132;-77
2021/09/03 16:59:52;;;;;;;0.00;0.00;;;;;;;;;;10490215;28;20098;-78
2021/09/03 17:04:56;;;;;;;0.00;0.00;;;;;;;;;;10518002;28;20049;-78
2021/09/03 17:09:59;;;;;;;0.00;0.00;;;;;;;;;;10494772;28;20055;-77
2021/09/03 17:15:03;;;;;;;0.00;0.00;;;;;;;;;;10493757;28;20049;-77
2021/09/03 17:20:07;;;;;;;0.00;0.00;;;;;;;;;;10508384;28;20032;-77
2021/09/03 17:25:11;;;;;;;0.00;0.00;;;;;;;;;;10496145;28;20052;-77
2021/09/03 17:30:15;;;;;;;0.00;0.00;;;;;;;;;;10483727;28;20048;-78
2021/09/03 17:35:18;;;;;;;0.00;0.00;;;;;;;;;;10494572;28;20818;-78
2021/09/03 17:40:20;;;;;;;0.00;0.00;;;;;;;;;;10493804;28;20058;-77
2021/09/03 17:45:26;;;;;;;0.00;0.00;;;;;;;;;;10491332;28;20048;-77
2021/09/03 17:50:29;;;;;;;0.00;0.00;;;;;;;;;;10504218;28;20036;-77
2021/09/03 17:55:32;;;;;;;0.00;0.00;;;;;;;;;;10491002;28;20059;-77
2021/09/03 18:00:38;;;;;;;0.00;0.00;;;;;;;;;;10497617;28;20151;-78
2021/09/03 18:05:41;;;;;;;0.00;0.00;;;;;;;;;;10495808;28;21024;-77
2021/09/03 18:10:44;;;;;;;0.00;0.00;;;;;;;;;;10488549;28;20147;-77
2021/09/03 18:15:48;;;;;;;0.00;0.00;;;;;;;;;;10507499;28;20128;-77
2021/09/03 18:20:54;;;;;;;0.00;0.00;;;;;;;;;;10481785;28;20055;-76
2021/09/03 18:25:57;;;;;;;0.00;0.00;;;;;;;;;;10503443;28;20060;-77
2021/09/03 18:31:01;;;;;;;0.10;0.00;;;;;;;;;;10502850;28;20083;-77
2021/09/03 18:36:05;;;;;;;0.55;0.00;;;;;;;;;;10484764;28;20557;-77
2021/09/03 18:41:07;;;;;;;0.05;0.00;;;;;;;;;;10509521;28;20420;-77
2021/09/03 18:46:13;;;;;;;0.00;0.00;;;;;;;;;;10514411;28;20406;-77
2021/09/03 18:51:16;;;;;;;0.00;0.00;;;;;;;;;;10508333;28;20052;-76
2021/09/03 18:56:18;;;;;;;0.38;0.00;;;;;;;;;;10517272;28;20520;-77
2021/09/03 19:01:24;;;;;;;0.00;0.00;;;;;;;;;;10518629;28;20404;-77
2021/09/03 19:06:30;;;;;;;0.00;0.00;;;;;;;;;;10490532;28;20497;-77
2021/09/03 19:11:33;;;;;;;0.65;0.05;;;;;;;;;;10487960;28;20131;-77
2021/09/03 19:16:37;;;;;;;0.00;0.00;;;;;;;;;;10494864;28;20044;-77
2021/09/03 19:21:40;;;;;;;0.10;0.00;;;;;;;;;;10490014;28;20068;-77
2021/09/03 19:26:43;;;;;;;0.00;0.00;;;;;;;;;;10508791;28;20413;-77
2021/09/03 19:31:47;;;;;;;0.00;0.00;;;;;;;;;;10482731;28;20118;-77
2021/09/03 19:36:50;;;;;;;0.00;0.00;;;;;;;;;;10487731;28;20052;-77
2021/09/03 19:41:54;;;;;;;0.00;0.00;;;;;;;;;;10497070;28;20046;-78
2021/09/03 19:46:58;;;;;;;0.00;0.00;;;;;;;;;;10485239;28;20493;-76
2021/09/03 19:52:01;;;;;;;0.00;0.00;;;;;;;;;;10508679;28;20032;-82
2021/09/03 19:57:04;;;;;;;0.00;0.00;;;;;;;;;;10511697;28;20045;-81
2021/09/03 20:02:10;;;;;;;0.20;0.00;;;;;;;;;;10509771;28;20048;-82
2021/09/03 20:07:13;;;;;;;0.00;0.00;;;;;;;;;;10498258;28;20123;-83
2021/09/03 20:12:15;;;;;;;0.00;0.00;;;;;;;;;;10511070;28;20055;-82
2021/09/03 20:17:21;;;;;;;0.00;0.00;;;;;;;;;;10504831;28;20087;-82
2021/09/03 20:22:24;;;;;;;0.00;0.00;;;;;;;;;;10522647;28;20040;-81
2021/09/03 20:27:36;;;;;;;0.00;0.00;;;;;;;;;;10522196;28;20701;-80
2021/09/03 20:32:39;;;;;;;;;;;;;;;;;;10506809;28;20050;-81
2021/09/03 20:37:43;;;;;;;0.00;0.00;;;;;;;;;;10515003;28;19927;-82
2021/09/03 20:42:48;;;;;;;0.00;0.00;;;;;;;;;;10498977;28;20044;-81
2021/09/03 20:47:53;;;;;;;0.00;0.00;;;;;;;;;;10518293;28;20056;-82
2021/09/03 20:52:57;;;;;;;0.00;0.00;;;;;;;;;;10501365;28;20080;-82
2021/09/03 20:58:02;;;;;;;0.00;0.00;;;;;;;;;;10499014;28;20048;-82
2021/09/03 21:03:06;;;;;;;0.00;0.00;;;;;;;;;;10526905;28;20036;-83
2021/09/03 21:08:10;;;;;;;0.00;0.00;;;;;;;;;;10527584;28;20072;-83
2021/09/03 21:13:12;;;;;;;0.00;0.00;;;;;;;;;;10499565;28;20054;-82
2021/09/03 21:18:15;;;;;;;0.00;0.00;;;;;;;;;;10529330;28;20047;-82
2021/09/03 21:23:19;;;;;;;0.00;0.00;;;;;;;;;;10512204;28;20041;-82
2021/09/03 21:28:22;;;;;;;0.00;0.00;;;;;;;;;;10513825;28;20391;-81
2021/09/03 21:33:29;;;;;;;0.00;0.00;;;;;;;;;;10489532;28;20051;-80
2021/09/03 21:38:33;;;;;;;0.00;0.00;;;;;;;;;;10511334;28;20047;-80
2021/09/03 21:43:36;;;;;;;0.00;0.00;;;;;;;;;;10495157;28;20048;-80
2021/09/03 21:48:39;;;;;;;0.00;0.00;;;;;;;;;;10509398;28;20051;-81
2021/09/03 21:53:44;;;;;;;0.00;0.00;;;;;;;;;;10495549;28;20043;-81
2021/09/03 21:58:47;;;;;;;0.00;0.00;;;;;;;;;;10505612;28;20514;-81
2021/09/03 22:03:51;;;;;;;0.00;0.00;;;;;;;;;;10509678;28;20044;-81
2021/09/03 22:08:55;;;;;;;0.00;0.00;;;;;;;;;;10517444;28;20064;-81
2021/09/03 22:14:01;;;;;;;0.00;0.00;;;;;;;;;;10509334;28;20487;-80
2021/09/03 22:19:04;;;;;;;0.00;0.00;;;;;;;;;;10518237;28;20047;-80
2021/09/03 22:24:09;;;;;;;0.00;0.00;;;;;;;;;;10510831;28;20044;-79
2021/09/03 22:29:12;;;;;;;0.00;0.00;;;;;;;;;;10514292;28;20047;-81
2021/09/03 22:34:14;;;;;;;0.00;0.00;;;;;;;;;;10499251;28;20406;-80
2021/09/03 22:39:18;;;;;;;0.00;0.00;;;;;;;;;;10513775;28;20130;-80
2021/09/03 22:44:21;;;;;;;0.00;0.00;;;;;;;;;;10507218;28;20036;-72
2021/09/03 22:49:24;;;;;;;0.00;0.00;;;;;;;;;;10506359;28;20045;-72
2021/09/03 22:54:29;;;;;;;0.00;0.00;;;;;;;;;;10494039;28;20747;-73
2021/09/03 22:59:31;;;;;;;0.00;0.00;;;;;;;;;;10511956;28;20059;-73
2021/09/03 23:04:34;;;;;;;0.00;0.00;;;;;;;;;;10511488;28;20055;-72
2021/09/03 23:09:38;;;;;;;0.00;0.00;;;;;;;;;;10521488;28;20494;-72
2021/09/03 23:14:42;;;;;;;0.00;0.00;;;;;;;;;;10508581;28;20040;-72
2021/09/03 23:19:44;;;;;;;0.00;0.00;;;;;;;;;;10507444;28;20047;-72
2021/09/03 23:24:48;;;;;;;0.00;0.00;;;;;;;;;;10512541;28;20040;-72
2021/09/03 23:29:51;;;;;;;0.00;0.00;;;;;;;;;;10491280;28;20129;-72
2021/09/03 23:34:54;;;;;;;0.00;0.00;;;;;;;;;;10496956;28;20044;-71
2021/09/03 23:39:58;;;;;;;0.00;0.00;;;;;;;;;;10494157;28;20049;-72
2021/09/03 23:45:01;;;;;;;0.00;0.00;;;;;;;;;;10502964;28;20068;-73
2021/09/03 23:50:05;;;;;;;0.00;0.00;;;;;;;;;;10512055;28;20048;-72
2021/09/03 23:55:10;;;;;;;0.00;0.00;;;;;;;;;;10523469;28;20056;-72
